sensor_id;sensor_type;location;lat;lon;timestamp;temperature;humidity
23544;DHT22;11950;51.230;4.012;2023-12-29T00:01:49;13.00;99.90
23544;DHT22;11950;51.230;4.012;2023-12-29T00:04:15;13.00;99.90
23544;DHT22;11950;51.230;4.012;2023-12-29T00:06:41;12.90;99.90
23544;DHT22;11950;51.230;4.012;2023-12-29T00:09:07;12.90;99.90
23544;DHT22;11950;51.230;4.012;2023-12-29T00:11:34;12.90;99.90
23544;DHT22;11950;51.230;4.012;2023-12-29T00:14:00;12.80;99.90
23544;DHT22;11950;51.230;4.012;2023-12-29T00:16:27;12.80;99.90
23544;DHT22;11950;51.230;4.012;2023-12-29T00:18:53;12.70;99.90
23544;DHT22;11950;51.230;4.012;2023-12-29T00:21:20;12.70;99.90
23544;DHT22;11950;51.230;4.012;2023-12-29T00:23:47;12.70;99.90
23544;DHT22;11950;51.230;4.012;2023-12-29T00:26:17;12.60;99.90
23544;DHT22;11950;51.230;4.012;2023-12-29T00:28:44;12.60;99.90
23544;DHT22;11950;51.230;4.012;2023-12-29T00:31:15;12.60;99.90
23544;DHT22;11950;51.230;4.012;2023-12-29T00:33:42;12.60;99.90
23544;DHT22;11950;51.230;4.012;2023-12-29T00:36:17;12.60;99.90
23544;DHT22;11950;51.230;4.012;2023-12-29T00:38:43;12.50;99.90
23544;DHT22;11950;51.230;4.012;2023-12-29T00:41:10;12.60;99.90
23544;DHT22;11950;51.230;4.012;2023-12-29T00:43:36;12.50;99.90
23544;DHT22;11950;51.230;4.012;2023-12-29T00:46:03;12.50;99.90
23544;DHT22;11950;51.230;4.012;2023-12-29T00:48:31;12.40;99.90
23544;DHT22;11950;51.230;4.012;2023-12-29T00:50:57;12.40;99.90
23544;DHT22;11950;51.230;4.012;2023-12-29T00:53:23;12.50;99.90
23544;DHT22;11950;51.230;4.012;2023-12-29T00:55:50;12.40;99.90
23544;DHT22;11950;51.230;4.012;2023-12-29T00:58:17;12.40;99.90
23544;DHT22;11950;51.230;4.012;2023-12-29T01:00:43;12.30;99.90
23544;DHT22;11950;51.230;4.012;2023-12-29T01:03:10;12.30;99.90
23544;DHT22;11950;51.230;4.012;2023-12-29T01:05:36;12.30;99.90
23544;DHT22;11950;51.230;4.012;2023-12-29T01:08:02;12.30;99.90
23544;DHT22;11950;51.230;4.012;2023-12-29T01:10:29;12.30;99.90
23544;DHT22;11950;51.230;4.012;2023-12-29T01:12:55;12.30;99.90
23544;DHT22;11950;51.230;4.012;2023-12-29T01:15:21;12.30;99.90
23544;DHT22;11950;51.230;4.012;2023-12-29T01:17:47;12.30;99.90
23544;DHT22;11950;51.230;4.012;2023-12-29T01:20:14;12.30;99.90
23544;DHT22;11950;51.230;4.012;2023-12-29T01:22:40;12.30;99.90
23544;DHT22;11950;51.230;4.012;2023-12-29T01:25:07;12.30;99.90
23544;DHT22;11950;51.230;4.012;2023-12-29T01:27:34;12.30;99.90
23544;DHT22;11950;51.230;4.012;2023-12-29T01:30:00;12.30;99.90
23544;DHT22;11950;51.230;4.012;2023-12-29T01:32:26;12.30;99.90
23544;DHT22;11950;51.230;4.012;2023-12-29T01:34:53;12.40;99.90
23544;DHT22;11950;51.230;4.012;2023-12-29T01:37:19;12.40;99.90
23544;DHT22;11950;51.230;4.012;2023-12-29T01:39:46;12.40;99.90
23544;DHT22;11950;51.230;4.012;2023-12-29T01:42:12;12.40;99.90
23544;DHT22;11950;51.230;4.012;2023-12-29T01:44:38;12.40;99.90
23544;DHT22;11950;51.230;4.012;2023-12-29T01:47:11;12.40;99.90
23544;DHT22;11950;51.230;4.012;2023-12-29T01:49:39;12.40;99.90
23544;DHT22;11950;51.230;4.012;2023-12-29T01:52:06;12.40;99.90
23544;DHT22;11950;51.230;4.012;2023-12-29T01:54:37;12.50;99.90
23544;DHT22;11950;51.230;4.012;2023-12-29T01:57:07;12.50;99.90
23544;DHT22;11950;51.230;4.012;2023-12-29T01:59:35;12.50;99.90
23544;DHT22;11950;51.230;4.012;2023-12-29T02:02:02;12.40;99.90
23544;DHT22;11950;51.230;4.012;2023-12-29T02:04:28;12.40;99.90
23544;DHT22;11950;51.230;4.012;2023-12-29T02:06:55;12.40;99.90
23544;DHT22;11950;51.230;4.012;2023-12-29T02:09:22;12.30;99.90
23544;DHT22;11950;51.230;4.012;2023-12-29T02:11:48;12.30;99.90
23544;DHT22;11950;51.230;4.012;2023-12-29T02:14:16;12.40;99.90
23544;DHT22;11950;51.230;4.012;2023-12-29T02:19:39;12.30;99.90
23544;DHT22;11950;51.230;4.012;2023-12-29T02:22:06;12.30;99.90
23544;DHT22;11950;51.230;4.012;2023-12-29T02:24:35;12.30;99.90
23544;DHT22;11950;51.230;4.012;2023-12-29T02:32:32;12.20;99.90
23544;DHT22;11950;51.230;4.012;2023-12-29T02:35:00;12.20;99.90
23544;DHT22;11950;51.230;4.012;2023-12-29T02:37:28;12.20;99.90
23544;DHT22;11950;51.230;4.012;2023-12-29T02:39:56;12.10;99.90
23544;DHT22;11950;51.230;4.012;2023-12-29T02:42:23;12.10;99.90
23544;DHT22;11950;51.230;4.012;2023-12-29T02:44:49;12.10;99.90
23544;DHT22;11950;51.230;4.012;2023-12-29T02:47:15;12.10;99.90
23544;DHT22;11950;51.230;4.012;2023-12-29T02:49:43;12.10;99.90
23544;DHT22;11950;51.230;4.012;2023-12-29T02:52:09;12.10;99.90
23544;DHT22;11950;51.230;4.012;2023-12-29T02:54:35;12.10;99.90
23544;DHT22;11950;51.230;4.012;2023-12-29T02:57:01;12.10;99.90
23544;DHT22;11950;51.230;4.012;2023-12-29T02:59:29;12.10;99.90
23544;DHT22;11950;51.230;4.012;2023-12-29T03:01:55;12.10;99.90
23544;DHT22;11950;51.230;4.012;2023-12-29T03:04:21;12.10;99.90
23544;DHT22;11950;51.230;4.012;2023-12-29T03:06:48;12.10;99.90
23544;DHT22;11950;51.230;4.012;2023-12-29T03:09:14;12.10;99.90
23544;DHT22;11950;51.230;4.012;2023-12-29T03:11:40;12.10;99.90
23544;DHT22;11950;51.230;4.012;2023-12-29T03:14:06;12.10;99.90
23544;DHT22;11950;51.230;4.012;2023-12-29T03:16:32;12.10;99.90
23544;DHT22;11950;51.230;4.012;2023-12-29T03:19:02;12.10;99.90
23544;DHT22;11950;51.230;4.012;2023-12-29T03:21:28;12.10;99.90
23544;DHT22;11950;51.230;4.012;2023-12-29T03:23:54;12.10;99.90
23544;DHT22;11950;51.230;4.012;2023-12-29T03:26:20;12.10;99.90
23544;DHT22;11950;51.230;4.012;2023-12-29T03:28:46;12.10;99.90
23544;DHT22;11950;51.230;4.012;2023-12-29T03:31:13;12.10;99.90
23544;DHT22;11950;51.230;4.012;2023-12-29T03:33:39;12.10;99.90
23544;DHT22;11950;51.230;4.012;2023-12-29T03:36:06;12.10;99.90
23544;DHT22;11950;51.230;4.012;2023-12-29T03:38:34;12.10;99.90
23544;DHT22;11950;51.230;4.012;2023-12-29T03:41:06;12.10;99.90
23544;DHT22;11950;51.230;4.012;2023-12-29T03:43:32;12.10;99.90
23544;DHT22;11950;51.230;4.012;2023-12-29T03:45:58;12.10;99.90
23544;DHT22;11950;51.230;4.012;2023-12-29T03:48:25;12.00;99.90
23544;DHT22;11950;51.230;4.012;2023-12-29T03:50:51;12.00;99.90
23544;DHT22;11950;51.230;4.012;2023-12-29T03:53:17;12.00;99.90
23544;DHT22;11950;51.230;4.012;2023-12-29T03:55:45;12.00;99.90
23544;DHT22;11950;51.230;4.012;2023-12-29T03:58:11;12.00;99.90
23544;DHT22;11950;51.230;4.012;2023-12-29T04:00:37;12.00;99.90
23544;DHT22;11950;51.230;4.012;2023-12-29T04:03:07;12.00;99.90
23544;DHT22;11950;51.230;4.012;2023-12-29T04:05:34;12.00;99.90
23544;DHT22;11950;51.230;4.012;2023-12-29T04:08:00;12.00;99.90
23544;DHT22;11950;51.230;4.012;2023-12-29T04:10:26;12.00;99.90
23544;DHT22;11950;51.230;4.012;2023-12-29T04:12:52;12.00;99.90
23544;DHT22;11950;51.230;4.012;2023-12-29T04:15:19;12.00;99.90
23544;DHT22;11950;51.230;4.012;2023-12-29T04:17:46;12.10;99.90
23544;DHT22;11950;51.230;4.012;2023-12-29T04:20:13;12.10;99.90
23544;DHT22;11950;51.230;4.012;2023-12-29T04:22:39;12.10;99.90
23544;DHT22;11950;51.230;4.012;2023-12-29T04:25:07;12.10;99.90
23544;DHT22;11950;51.230;4.012;2023-12-29T04:27:35;12.10;99.90
23544;DHT22;11950;51.230;4.012;2023-12-29T04:30:02;12.20;99.90
23544;DHT22;11950;51.230;4.012;2023-12-29T04:32:30;12.20;99.90
23544;DHT22;11950;51.230;4.012;2023-12-29T04:34:57;12.20;99.90
23544;DHT22;11950;51.230;4.012;2023-12-29T04:37:23;12.10;99.90
23544;DHT22;11950;51.230;4.012;2023-12-29T04:39:49;12.20;99.90
23544;DHT22;11950;51.230;4.012;2023-12-29T04:42:15;12.10;99.90
23544;DHT22;11950;51.230;4.012;2023-12-29T04:44:44;12.10;99.90
23544;DHT22;11950;51.230;4.012;2023-12-29T04:47:10;12.10;99.90
23544;DHT22;11950;51.230;4.012;2023-12-29T04:49:39;12.10;99.90
23544;DHT22;11950;51.230;4.012;2023-12-29T04:52:06;12.10;99.90
23544;DHT22;11950;51.230;4.012;2023-12-29T04:54:32;12.00;99.90
23544;DHT22;11950;51.230;4.012;2023-12-29T04:56:58;12.10;99.90
23544;DHT22;11950;51.230;4.012;2023-12-29T04:59:24;12.10;99.90
23544;DHT22;11950;51.230;4.012;2023-12-29T05:01:53;12.10;99.90
23544;DHT22;11950;51.230;4.012;2023-12-29T05:04:20;12.10;99.90
23544;DHT22;11950;51.230;4.012;2023-12-29T05:06:46;12.00;99.90
23544;DHT22;11950;51.230;4.012;2023-12-29T05:09:12;12.00;99.90
23544;DHT22;11950;51.230;4.012;2023-12-29T05:11:39;12.10;99.90
23544;DHT22;11950;51.230;4.012;2023-12-29T05:14:06;12.10;99.90
23544;DHT22;11950;51.230;4.012;2023-12-29T05:16:32;12.10;99.90
23544;DHT22;11950;51.230;4.012;2023-12-29T05:18:58;12.10;99.90
23544;DHT22;11950;51.230;4.012;2023-12-29T05:21:24;12.20;99.90
23544;DHT22;11950;51.230;4.012;2023-12-29T05:23:52;12.20;99.90
23544;DHT22;11950;51.230;4.012;2023-12-29T05:26:18;12.20;99.90
23544;DHT22;11950;51.230;4.012;2023-12-29T05:28:44;12.20;99.90
23544;DHT22;11950;51.230;4.012;2023-12-29T05:31:10;12.20;99.90
23544;DHT22;11950;51.230;4.012;2023-12-29T05:33:37;12.30;99.90
23544;DHT22;11950;51.230;4.012;2023-12-29T05:36:07;12.30;99.90
23544;DHT22;11950;51.230;4.012;2023-12-29T05:38:34;12.30;99.90
23544;DHT22;11950;51.230;4.012;2023-12-29T05:41:04;12.30;99.90
23544;DHT22;11950;51.230;4.012;2023-12-29T05:43:31;12.30;99.90
23544;DHT22;11950;51.230;4.012;2023-12-29T05:45:58;12.20;99.90
23544;DHT22;11950;51.230;4.012;2023-12-29T05:48:25;12.20;99.90
23544;DHT22;11950;51.230;4.012;2023-12-29T05:50:52;12.20;99.90
23544;DHT22;11950;51.230;4.012;2023-12-29T05:53:18;12.10;99.90
23544;DHT22;11950;51.230;4.012;2023-12-29T05:55:45;12.10;99.90
23544;DHT22;11950;51.230;4.012;2023-12-29T05:58:12;12.10;99.90
23544;DHT22;11950;51.230;4.012;2023-12-29T06:00:38;12.10;99.90
23544;DHT22;11950;51.230;4.012;2023-12-29T06:03:05;12.10;99.90
23544;DHT22;11950;51.230;4.012;2023-12-29T06:05:32;12.10;99.90
23544;DHT22;11950;51.230;4.012;2023-12-29T06:07:59;12.10;99.90
23544;DHT22;11950;51.230;4.012;2023-12-29T06:10:25;12.10;99.90
23544;DHT22;11950;51.230;4.012;2023-12-29T06:12:51;12.10;99.90
23544;DHT22;11950;51.230;4.012;2023-12-29T06:15:17;12.10;99.90
23544;DHT22;11950;51.230;4.012;2023-12-29T06:17:44;12.10;99.90
23544;DHT22;11950;51.230;4.012;2023-12-29T06:20:10;12.10;99.90
23544;DHT22;11950;51.230;4.012;2023-12-29T06:22:40;12.10;99.90
23544;DHT22;11950;51.230;4.012;2023-12-29T06:25:10;12.10;99.90
23544;DHT22;11950;51.230;4.012;2023-12-29T06:27:38;12.10;99.90
23544;DHT22;11950;51.230;4.012;2023-12-29T06:30:06;12.10;99.90
23544;DHT22;11950;51.230;4.012;2023-12-29T06:32:33;12.10;99.90
23544;DHT22;11950;51.230;4.012;2023-12-29T06:34:59;12.10;99.90
23544;DHT22;11950;51.230;4.012;2023-12-29T06:37:26;12.10;99.90
23544;DHT22;11950;51.230;4.012;2023-12-29T06:39:52;12.10;99.90
23544;DHT22;11950;51.230;4.012;2023-12-29T06:42:19;12.20;99.90
23544;DHT22;11950;51.230;4.012;2023-12-29T06:44:46;12.20;99.90
23544;DHT22;11950;51.230;4.012;2023-12-29T06:47:12;12.20;99.90
23544;DHT22;11950;51.230;4.012;2023-12-29T06:49:39;12.20;99.90
23544;DHT22;11950;51.230;4.012;2023-12-29T06:52:05;12.20;99.90
23544;DHT22;11950;51.230;4.012;2023-12-29T06:54:33;12.10;99.90
23544;DHT22;11950;51.230;4.012;2023-12-29T06:56:59;12.10;99.90
23544;DHT22;11950;51.230;4.012;2023-12-29T06:59:25;12.10;99.90
23544;DHT22;11950;51.230;4.012;2023-12-29T07:01:52;12.10;99.90
23544;DHT22;11950;51.230;4.012;2023-12-29T07:04:18;12.20;99.90
23544;DHT22;11950;51.230;4.012;2023-12-29T07:06:44;12.20;99.90
23544;DHT22;11950;51.230;4.012;2023-12-29T07:09:13;12.20;99.90
23544;DHT22;11950;51.230;4.012;2023-12-29T07:11:39;12.20;99.90
23544;DHT22;11950;51.230;4.012;2023-12-29T07:14:06;12.20;99.90
23544;DHT22;11950;51.230;4.012;2023-12-29T07:16:32;12.20;99.90
23544;DHT22;11950;51.230;4.012;2023-12-29T07:18:58;12.20;99.90
23544;DHT22;11950;51.230;4.012;2023-12-29T07:21:24;12.20;99.90
23544;DHT22;11950;51.230;4.012;2023-12-29T07:23:51;12.20;99.90
23544;DHT22;11950;51.230;4.012;2023-12-29T07:26:17;12.30;99.90
23544;DHT22;11950;51.230;4.012;2023-12-29T07:28:43;12.30;99.90
23544;DHT22;11950;51.230;4.012;2023-12-29T07:31:10;12.30;99.90
23544;DHT22;11950;51.230;4.012;2023-12-29T07:33:36;12.30;99.90
23544;DHT22;11950;51.230;4.012;2023-12-29T07:36:02;12.30;99.90
23544;DHT22;11950;51.230;4.012;2023-12-29T07:38:29;12.30;99.90
23544;DHT22;11950;51.230;4.012;2023-12-29T07:40:55;12.30;99.90
23544;DHT22;11950;51.230;4.012;2023-12-29T07:43:21;12.30;99.90
23544;DHT22;11950;51.230;4.012;2023-12-29T07:45:48;12.30;99.90
23544;DHT22;11950;51.230;4.012;2023-12-29T07:48:14;12.30;99.90
23544;DHT22;11950;51.230;4.012;2023-12-29T07:50:40;12.30;99.90
23544;DHT22;11950;51.230;4.012;2023-12-29T07:53:06;12.30;99.90
23544;DHT22;11950;51.230;4.012;2023-12-29T07:55:33;12.30;99.90
23544;DHT22;11950;51.230;4.012;2023-12-29T07:58:03;12.30;99.90
23544;DHT22;11950;51.230;4.012;2023-12-29T08:00:29;12.30;99.90
23544;DHT22;11950;51.230;4.012;2023-12-29T08:02:56;12.30;99.90
23544;DHT22;11950;51.230;4.012;2023-12-29T08:05:22;12.30;99.90
23544;DHT22;11950;51.230;4.012;2023-12-29T08:07:48;12.40;99.90
23544;DHT22;11950;51.230;4.012;2023-12-29T08:10:14;12.40;99.90
23544;DHT22;11950;51.230;4.012;2023-12-29T08:12:41;12.40;99.90
23544;DHT22;11950;51.230;4.012;2023-12-29T08:15:07;12.40;99.90
23544;DHT22;11950;51.230;4.012;2023-12-29T08:17:33;12.40;99.90
23544;DHT22;11950;51.230;4.012;2023-12-29T08:20:00;12.40;99.90
23544;DHT22;11950;51.230;4.012;2023-12-29T08:22:30;12.40;99.90
23544;DHT22;11950;51.230;4.012;2023-12-29T08:24:58;12.40;99.90
23544;DHT22;11950;51.230;4.012;2023-12-29T08:27:25;12.40;99.90
23544;DHT22;11950;51.230;4.012;2023-12-29T08:29:54;12.40;99.90
23544;DHT22;11950;51.230;4.012;2023-12-29T08:32:21;12.40;99.90
23544;DHT22;11950;51.230;4.012;2023-12-29T08:34:47;12.40;99.90
23544;DHT22;11950;51.230;4.012;2023-12-29T08:37:13;12.40;99.90
23544;DHT22;11950;51.230;4.012;2023-12-29T08:39:46;12.40;99.90
23544;DHT22;11950;51.230;4.012;2023-12-29T08:42:14;12.40;99.90
23544;DHT22;11950;51.230;4.012;2023-12-29T08:44:40;12.50;99.90
23544;DHT22;11950;51.230;4.012;2023-12-29T08:47:06;12.50;99.90
23544;DHT22;11950;51.230;4.012;2023-12-29T08:49:39;12.50;99.90
23544;DHT22;11950;51.230;4.012;2023-12-29T08:52:07;12.40;99.90
23544;DHT22;11950;51.230;4.012;2023-12-29T08:54:35;12.40;99.90
23544;DHT22;11950;51.230;4.012;2023-12-29T08:57:03;12.40;99.90
23544;DHT22;11950;51.230;4.012;2023-12-29T08:59:30;12.40;99.90
23544;DHT22;11950;51.230;4.012;2023-12-29T09:01:56;12.40;99.90
23544;DHT22;11950;51.230;4.012;2023-12-29T09:04:22;12.40;99.90
23544;DHT22;11950;51.230;4.012;2023-12-29T09:06:49;12.50;99.90
23544;DHT22;11950;51.230;4.012;2023-12-29T09:09:15;12.50;99.90
23544;DHT22;11950;51.230;4.012;2023-12-29T09:11:45;12.60;99.90
23544;DHT22;11950;51.230;4.012;2023-12-29T09:14:13;12.60;99.90
23544;DHT22;11950;51.230;4.012;2023-12-29T09:16:39;12.60;99.90
23544;DHT22;11950;51.230;4.012;2023-12-29T09:19:08;12.60;99.90
23544;DHT22;11950;51.230;4.012;2023-12-29T09:21:34;12.60;99.90
23544;DHT22;11950;51.230;4.012;2023-12-29T09:24:01;12.60;99.90
23544;DHT22;11950;51.230;4.012;2023-12-29T09:26:27;12.60;99.90
23544;DHT22;11950;51.230;4.012;2023-12-29T09:28:53;12.60;99.90
23544;DHT22;11950;51.230;4.012;2023-12-29T09:31:19;12.70;99.90
23544;DHT22;11950;51.230;4.012;2023-12-29T09:33:46;12.70;99.90
23544;DHT22;11950;51.230;4.012;2023-12-29T09:36:12;12.80;99.90
23544;DHT22;11950;51.230;4.012;2023-12-29T09:38:38;12.80;99.90
23544;DHT22;11950;51.230;4.012;2023-12-29T09:41:09;12.90;99.90
23544;DHT22;11950;51.230;4.012;2023-12-29T09:43:36;12.90;99.90
23544;DHT22;11950;51.230;4.012;2023-12-29T09:46:04;12.90;99.90
23544;DHT22;11950;51.230;4.012;2023-12-29T09:48:31;12.90;99.90
23544;DHT22;11950;51.230;4.012;2023-12-29T09:50:58;13.00;99.90
23544;DHT22;11950;51.230;4.012;2023-12-29T09:53:25;13.00;99.90
23544;DHT22;11950;51.230;4.012;2023-12-29T09:55:53;13.00;99.90
23544;DHT22;11950;51.230;4.012;2023-12-29T09:58:21;13.00;99.90
23544;DHT22;11950;51.230;4.012;2023-12-29T10:00:49;13.00;99.90
23544;DHT22;11950;51.230;4.012;2023-12-29T10:03:16;13.10;99.90
23544;DHT22;11950;51.230;4.012;2023-12-29T10:05:44;13.10;99.90
23544;DHT22;11950;51.230;4.012;2023-12-29T10:08:15;13.10;99.90
23544;DHT22;11950;51.230;4.012;2023-12-29T10:10:42;13.10;99.90
23544;DHT22;11950;51.230;4.012;2023-12-29T10:13:10;13.10;99.90
23544;DHT22;11950;51.230;4.012;2023-12-29T10:21:08;13.10;99.90
23544;DHT22;11950;51.230;4.012;2023-12-29T10:23:43;13.10;99.90
23544;DHT22;11950;51.230;4.012;2023-12-29T10:26:13;13.10;99.90
23544;DHT22;11950;51.230;4.012;2023-12-29T10:28:41;13.10;99.90
23544;DHT22;11950;51.230;4.012;2023-12-29T10:31:10;13.10;99.90
23544;DHT22;11950;51.230;4.012;2023-12-29T10:33:39;13.10;99.90
23544;DHT22;11950;51.230;4.012;2023-12-29T10:36:05;13.00;99.90
23544;DHT22;11950;51.230;4.012;2023-12-29T10:38:34;13.00;99.90
23544;DHT22;11950;51.230;4.012;2023-12-29T10:41:14;13.00;99.90
23544;DHT22;11950;51.230;4.012;2023-12-29T10:43:41;13.00;99.90
23544;DHT22;11950;51.230;4.012;2023-12-29T10:46:09;13.00;99.90
23544;DHT22;11950;51.230;4.012;2023-12-29T10:48:39;13.00;99.90
23544;DHT22;11950;51.230;4.012;2023-12-29T10:51:06;13.00;99.90
23544;DHT22;11950;51.230;4.012;2023-12-29T10:53:33;13.00;99.90
23544;DHT22;11950;51.230;4.012;2023-12-29T10:56:00;13.00;99.90
23544;DHT22;11950;51.230;4.012;2023-12-29T10:58:27;13.00;99.90
23544;DHT22;11950;51.230;4.012;2023-12-29T11:00:56;13.00;99.90
23544;DHT22;11950;51.230;4.012;2023-12-29T11:03:22;13.00;99.90
23544;DHT22;11950;51.230;4.012;2023-12-29T11:05:50;12.90;99.90
23544;DHT22;11950;51.230;4.012;2023-12-29T11:08:21;13.00;99.90
23544;DHT22;11950;51.230;4.012;2023-12-29T11:10:50;12.90;99.90
23544;DHT22;11950;51.230;4.012;2023-12-29T11:13:17;12.90;99.90
23544;DHT22;11950;51.230;4.012;2023-12-29T11:15:44;12.90;99.90
23544;DHT22;11950;51.230;4.012;2023-12-29T11:18:16;12.90;99.90
23544;DHT22;11950;51.230;4.012;2023-12-29T11:20:43;12.90;99.90
23544;DHT22;11950;51.230;4.012;2023-12-29T11:23:10;12.90;99.90
23544;DHT22;11950;51.230;4.012;2023-12-29T11:25:40;12.90;99.90
23544;DHT22;11950;51.230;4.012;2023-12-29T11:28:10;12.90;99.90
23544;DHT22;11950;51.230;4.012;2023-12-29T11:30:38;12.90;99.90
23544;DHT22;11950;51.230;4.012;2023-12-29T11:33:15;12.90;99.90
23544;DHT22;11950;51.230;4.012;2023-12-29T11:36:29;12.90;99.90
23544;DHT22;11950;51.230;4.012;2023-12-29T11:41:09;12.90;99.90
23544;DHT22;11950;51.230;4.012;2023-12-29T11:43:37;13.00;99.90
23544;DHT22;11950;51.230;4.012;2023-12-29T11:46:03;13.00;99.90
23544;DHT22;11950;51.230;4.012;2023-12-29T11:48:56;13.00;99.90
23544;DHT22;11950;51.230;4.012;2023-12-29T11:51:44;13.10;99.90
23544;DHT22;11950;51.230;4.012;2023-12-29T11:54:22;13.10;99.90
23544;DHT22;11950;51.230;4.012;2023-12-29T11:56:49;13.10;99.90
23544;DHT22;11950;51.230;4.012;2023-12-29T11:59:23;13.10;99.90
23544;DHT22;11950;51.230;4.012;2023-12-29T12:01:55;13.10;99.90
23544;DHT22;11950;51.230;4.012;2023-12-29T12:04:35;13.10;99.90
23544;DHT22;11950;51.230;4.012;2023-12-29T12:07:04;13.10;99.90
23544;DHT22;11950;51.230;4.012;2023-12-29T12:09:31;13.10;99.90
23544;DHT22;11950;51.230;4.012;2023-12-29T12:11:57;13.10;99.90
23544;DHT22;11950;51.230;4.012;2023-12-29T12:14:52;13.10;99.90
23544;DHT22;11950;51.230;4.012;2023-12-29T12:17:28;13.20;99.90
23544;DHT22;11950;51.230;4.012;2023-12-29T12:20:13;13.10;99.90
23544;DHT22;11950;51.230;4.012;2023-12-29T12:22:39;13.10;99.90
23544;DHT22;11950;51.230;4.012;2023-12-29T12:25:07;13.20;99.90
23544;DHT22;11950;51.230;4.012;2023-12-29T12:27:33;13.20;99.90
23544;DHT22;11950;51.230;4.012;2023-12-29T12:29:59;13.20;99.90
23544;DHT22;11950;51.230;4.012;2023-12-29T12:32:27;13.30;99.90
23544;DHT22;11950;51.230;4.012;2023-12-29T12:34:53;13.30;99.90
23544;DHT22;11950;51.230;4.012;2023-12-29T12:37:25;13.30;99.90
23544;DHT22;11950;51.230;4.012;2023-12-29T12:39:52;13.30;99.90
23544;DHT22;11950;51.230;4.012;2023-12-29T12:42:21;13.30;99.90
23544;DHT22;11950;51.230;4.012;2023-12-29T12:45:12;13.30;99.90
23544;DHT22;11950;51.230;4.012;2023-12-29T12:47:44;13.30;99.90
23544;DHT22;11950;51.230;4.012;2023-12-29T12:50:12;13.30;99.90
23544;DHT22;11950;51.230;4.012;2023-12-29T12:52:39;13.30;99.90
23544;DHT22;11950;51.230;4.012;2023-12-29T12:55:06;13.30;99.90
23544;DHT22;11950;51.230;4.012;2023-12-29T12:57:34;13.30;99.90
23544;DHT22;11950;51.230;4.012;2023-12-29T13:00:02;13.30;99.90
23544;DHT22;11950;51.230;4.012;2023-12-29T13:02:29;13.30;99.90
23544;DHT22;11950;51.230;4.012;2023-12-29T13:04:56;13.30;99.90
23544;DHT22;11950;51.230;4.012;2023-12-29T13:07:23;13.30;99.90
23544;DHT22;11950;51.230;4.012;2023-12-29T13:09:50;13.30;99.90
23544;DHT22;11950;51.230;4.012;2023-12-29T13:12:18;13.30;99.90
23544;DHT22;11950;51.230;4.012;2023-12-29T13:14:44;13.30;99.90
23544;DHT22;11950;51.230;4.012;2023-12-29T13:17:13;13.40;99.90
23544;DHT22;11950;51.230;4.012;2023-12-29T13:19:41;13.40;99.90
23544;DHT22;11950;51.230;4.012;2023-12-29T13:22:11;13.40;99.90
23544;DHT22;11950;51.230;4.012;2023-12-29T13:24:45;13.40;99.90
23544;DHT22;11950;51.230;4.012;2023-12-29T13:27:12;13.40;99.90
23544;DHT22;11950;51.230;4.012;2023-12-29T13:29:39;13.40;99.90
23544;DHT22;11950;51.230;4.012;2023-12-29T13:32:19;13.40;99.90
23544;DHT22;11950;51.230;4.012;2023-12-29T13:35:05;13.40;99.90
23544;DHT22;11950;51.230;4.012;2023-12-29T13:40:22;13.40;99.90
23544;DHT22;11950;51.230;4.012;2023-12-29T13:42:50;13.40;99.90
23544;DHT22;11950;51.230;4.012;2023-12-29T13:45:19;13.50;99.90
23544;DHT22;11950;51.230;4.012;2023-12-29T13:47:46;13.40;99.90
23544;DHT22;11950;51.230;4.012;2023-12-29T13:50:13;13.40;99.90
23544;DHT22;11950;51.230;4.012;2023-12-29T13:52:40;13.40;99.90
23544;DHT22;11950;51.230;4.012;2023-12-29T13:55:06;13.30;99.90
23544;DHT22;11950;51.230;4.012;2023-12-29T13:57:33;13.40;99.90
23544;DHT22;11950;51.230;4.012;2023-12-29T14:00:20;13.40;99.90
23544;DHT22;11950;51.230;4.012;2023-12-29T14:10:33;13.30;99.90
23544;DHT22;11950;51.230;4.012;2023-12-29T14:13:18;13.30;99.90
23544;DHT22;11950;51.230;4.012;2023-12-29T14:15:45;13.30;99.90
23544;DHT22;11950;51.230;4.012;2023-12-29T14:20:59;13.30;99.90
23544;DHT22;11950;51.230;4.012;2023-12-29T14:23:25;13.30;99.90
23544;DHT22;11950;51.230;4.012;2023-12-29T14:25:52;13.30;99.90
23544;DHT22;11950;51.230;4.012;2023-12-29T14:28:20;13.30;99.90
23544;DHT22;11950;51.230;4.012;2023-12-29T14:30:49;13.30;99.90
23544;DHT22;11950;51.230;4.012;2023-12-29T14:33:16;13.30;99.90
23544;DHT22;11950;51.230;4.012;2023-12-29T14:35:43;13.30;99.90
23544;DHT22;11950;51.230;4.012;2023-12-29T14:38:09;13.30;99.90
23544;DHT22;11950;51.230;4.012;2023-12-29T14:40:38;13.30;99.90
23544;DHT22;11950;51.230;4.012;2023-12-29T14:43:05;13.30;99.90
23544;DHT22;11950;51.230;4.012;2023-12-29T14:45:32;13.30;99.90
23544;DHT22;11950;51.230;4.012;2023-12-29T14:47:58;13.30;99.90
23544;DHT22;11950;51.230;4.012;2023-12-29T14:50:26;13.30;99.90
23544;DHT22;11950;51.230;4.012;2023-12-29T14:52:52;13.30;99.90
23544;DHT22;11950;51.230;4.012;2023-12-29T14:55:19;13.30;99.90
23544;DHT22;11950;51.230;4.012;2023-12-29T14:57:46;13.30;99.90
23544;DHT22;11950;51.230;4.012;2023-12-29T15:00:13;13.40;99.90
23544;DHT22;11950;51.230;4.012;2023-12-29T15:02:39;13.40;99.90
23544;DHT22;11950;51.230;4.012;2023-12-29T15:05:06;13.40;99.90
23544;DHT22;11950;51.230;4.012;2023-12-29T15:07:32;13.50;99.90
23544;DHT22;11950;51.230;4.012;2023-12-29T15:09:58;13.40;99.90
23544;DHT22;11950;51.230;4.012;2023-12-29T15:12:24;13.40;99.90
23544;DHT22;11950;51.230;4.012;2023-12-29T15:14:51;13.40;99.90
23544;DHT22;11950;51.230;4.012;2023-12-29T15:17:17;13.50;99.90
23544;DHT22;11950;51.230;4.012;2023-12-29T15:19:43;13.40;99.90
23544;DHT22;11950;51.230;4.012;2023-12-29T15:22:09;13.40;99.90
23544;DHT22;11950;51.230;4.012;2023-12-29T15:24:36;13.40;99.90
23544;DHT22;11950;51.230;4.012;2023-12-29T15:27:02;13.40;99.90
23544;DHT22;11950;51.230;4.012;2023-12-29T15:29:28;13.30;99.90
23544;DHT22;11950;51.230;4.012;2023-12-29T15:31:57;13.30;99.90
23544;DHT22;11950;51.230;4.012;2023-12-29T15:34:23;13.30;99.90
23544;DHT22;11950;51.230;4.012;2023-12-29T15:36:49;13.30;99.90
23544;DHT22;11950;51.230;4.012;2023-12-29T15:39:16;13.30;99.90
23544;DHT22;11950;51.230;4.012;2023-12-29T15:41:42;13.30;99.90
23544;DHT22;11950;51.230;4.012;2023-12-29T15:44:08;13.20;99.90
23544;DHT22;11950;51.230;4.012;2023-12-29T15:46:34;13.30;99.90
23544;DHT22;11950;51.230;4.012;2023-12-29T15:49:01;13.30;99.90
23544;DHT22;11950;51.230;4.012;2023-12-29T15:51:29;13.30;99.90
23544;DHT22;11950;51.230;4.012;2023-12-29T15:53:58;13.20;99.90
23544;DHT22;11950;51.230;4.012;2023-12-29T15:56:24;13.20;99.90
23544;DHT22;11950;51.230;4.012;2023-12-29T15:58:51;13.20;99.90
23544;DHT22;11950;51.230;4.012;2023-12-29T16:01:26;13.10;99.90
23544;DHT22;11950;51.230;4.012;2023-12-29T16:03:54;13.10;99.90